sensor_id;sensor_type;location;lat;lon;timestamp;pressure;altitude;pressure_sealevel;temperature;humidity
12247;BME280;6186;52.022;4.692;2023-03-24T00:02:04;99776.44;;;13.01;100.00
12247;BME280;6186;52.022;4.692;2023-03-24T00:04:31;99762.34;;;13.01;100.00
12247;BME280;6186;52.022;4.692;2023-03-24T00:06:57;99756.97;;;13.02;100.00
12247;BME280;6186;52.022;4.692;2023-03-24T00:09:25;99746.41;;;13.02;100.00
12247;BME280;6186;52.022;4.692;2023-03-24T00:11:52;99757.88;;;13.03;100.00
12247;BME280;6186;52.022;4.692;2023-03-24T00:14:18;99750.81;;;13.03;100.00
12247;BME280;6186;52.022;4.692;2023-03-24T00:16:43;99756.22;;;13.00;100.00
12247;BME280;6186;52.022;4.692;2023-03-24T00:19:10;99744.88;;;12.98;100.00
12247;BME280;6186;52.022;4.692;2023-03-24T00:21:38;99736.66;;;13.04;100.00
12247;BME280;6186;52.022;4.692;2023-03-24T00:24:04;99728.88;;;13.01;100.00
12247;BME280;6186;52.022;4.692;2023-03-24T00:26:29;99739.31;;;13.04;100.00
12247;BME280;6186;52.022;4.692;2023-03-24T00:28:56;99734.78;;;13.06;100.00
12247;BME280;6186;52.022;4.692;2023-03-24T00:31:22;99731.22;;;13.07;100.00
12247;BME280;6186;52.022;4.692;2023-03-24T00:33:48;99726.88;;;13.06;100.00
12247;BME280;6186;52.022;4.692;2023-03-24T00:36:16;99721.44;;;13.09;100.00
12247;BME280;6186;52.022;4.692;2023-03-24T00:38:44;99739.75;;;13.12;100.00
12247;BME280;6186;52.022;4.692;2023-03-24T00:41:11;99718.53;;;13.14;100.00
12247;BME280;6186;52.022;4.692;2023-03-24T00:43:36;99713.34;;;13.12;100.00
12247;BME280;6186;52.022;4.692;2023-03-24T00:46:06;99708.75;;;13.16;100.00
12247;BME280;6186;52.022;4.692;2023-03-24T00:48:32;99696.38;;;13.16;100.00
12247;BME280;6186;52.022;4.692;2023-03-24T00:51:01;99695.44;;;13.17;100.00
12247;BME280;6186;52.022;4.692;2023-03-24T00:53:27;99678.03;;;13.13;100.00
12247;BME280;6186;52.022;4.692;2023-03-24T00:55:53;99699.81;;;13.18;100.00
12247;BME280;6186;52.022;4.692;2023-03-24T00:58:19;99680.53;;;13.16;100.00
12247;BME280;6186;52.022;4.692;2023-03-24T01:00:54;99683.94;;;13.18;100.00
12247;BME280;6186;52.022;4.692;2023-03-24T01:03:21;99694.53;;;13.18;100.00
12247;BME280;6186;52.022;4.692;2023-03-24T01:05:49;99685.72;;;13.18;100.00
12247;BME280;6186;52.022;4.692;2023-03-24T01:08:15;99686.69;;;13.17;100.00
12247;BME280;6186;52.022;4.692;2023-03-24T01:10:45;99678.81;;;13.15;100.00
12247;BME280;6186;52.022;4.692;2023-03-24T01:13:26;99670.97;;;13.14;100.00
12247;BME280;6186;52.022;4.692;2023-03-24T01:15:52;99678.75;;;13.17;100.00
12247;BME280;6186;52.022;4.692;2023-03-24T01:18:18;99675.25;;;13.16;100.00
12247;BME280;6186;52.022;4.692;2023-03-24T01:20:45;99672.69;;;13.15;100.00
12247;BME280;6186;52.022;4.692;2023-03-24T01:23:18;99677.03;;;13.16;100.00
12247;BME280;6186;52.022;4.692;2023-03-24T01:25:44;99662.28;;;13.12;100.00
12247;BME280;6186;52.022;4.692;2023-03-24T01:28:13;99681.47;;;13.15;100.00
12247;BME280;6186;52.022;4.692;2023-03-24T01:30:39;99674.41;;;13.16;100.00
12247;BME280;6186;52.022;4.692;2023-03-24T01:33:05;99675.41;;;13.13;100.00
12247;BME280;6186;52.022;4.692;2023-03-24T01:35:31;99672.59;;;13.16;100.00
12247;BME280;6186;52.022;4.692;2023-03-24T01:37:58;99672.59;;;13.16;100.00
12247;BME280;6186;52.022;4.692;2023-03-24T01:40:26;99679.59;;;13.17;100.00
12247;BME280;6186;52.022;4.692;2023-03-24T01:42:52;99684.09;;;13.15;100.00
12247;BME280;6186;52.022;4.692;2023-03-24T01:51:01;99705.09;;;13.18;100.00
12247;BME280;6186;52.022;4.692;2023-03-24T01:53:29;99716.56;;;13.17;100.00
12247;BME280;6186;52.022;4.692;2023-03-24T01:55:56;99725.38;;;13.18;100.00
12247;BME280;6186;52.022;4.692;2023-03-24T01:58:23;99708.38;;;13.06;100.00
12247;BME280;6186;52.022;4.692;2023-03-24T02:00:49;99733.69;;;13.10;100.00
12247;BME280;6186;52.022;4.692;2023-03-24T02:03:17;99732.31;;;13.03;100.00
12247;BME280;6186;52.022;4.692;2023-03-24T02:05:46;99738.59;;;13.01;100.00
12247;BME280;6186;52.022;4.692;2023-03-24T02:08:32;99759.03;;;12.97;100.00
12247;BME280;6186;52.022;4.692;2023-03-24T02:11:00;99766.34;;;12.92;100.00
12247;BME280;6186;52.022;4.692;2023-03-24T02:13:26;99768.44;;;12.86;100.00
12247;BME280;6186;52.022;4.692;2023-03-24T02:18:44;99765.31;;;12.61;100.00
12247;BME280;6186;52.022;4.692;2023-03-24T02:27:05;99814.06;;;12.37;100.00
12247;BME280;6186;52.022;4.692;2023-03-24T02:40:25;99805.84;;;12.07;100.00
12247;BME280;6186;52.022;4.692;2023-03-24T02:43:13;99814.75;;;12.04;100.00
12247;BME280;6186;52.022;4.692;2023-03-24T02:46:34;99808.69;;;12.02;100.00
12247;BME280;6186;52.022;4.692;2023-03-24T02:49:26;99831.09;;;11.94;100.00
12247;BME280;6186;52.022;4.692;2023-03-24T02:52:02;99844.63;;;11.86;100.00
12247;BME280;6186;52.022;4.692;2023-03-24T02:54:46;99862.41;;;11.81;100.00
12247;BME280;6186;52.022;4.692;2023-03-24T02:57:26;99860.00;;;11.77;100.00
12247;BME280;6186;52.022;4.692;2023-03-24T03:00:26;99857.72;;;11.69;100.00
12247;BME280;6186;52.022;4.692;2023-03-24T03:02:59;99855.13;;;11.68;100.00
12247;BME280;6186;52.022;4.692;2023-03-24T03:05:34;99864.94;;;11.64;100.00
12247;BME280;6186;52.022;4.692;2023-03-24T03:08:04;99864.16;;;11.62;100.00
12247;BME280;6186;52.022;4.692;2023-03-24T03:10:36;99882.75;;;11.59;100.00
12247;BME280;6186;52.022;4.692;2023-03-24T03:13:07;99878.53;;;11.55;100.00
12247;BME280;6186;52.022;4.692;2023-03-24T03:15:38;99886.63;;;11.51;100.00
12247;BME280;6186;52.022;4.692;2023-03-24T03:18:13;99887.56;;;11.50;100.00
12247;BME280;6186;52.022;4.692;2023-03-24T03:20:46;99881.50;;;11.48;100.00
12247;BME280;6186;52.022;4.692;2023-03-24T03:23:33;99888.63;;;11.46;100.00
12247;BME280;6186;52.022;4.692;2023-03-24T03:26:02;99881.84;;;11.40;100.00
12247;BME280;6186;52.022;4.692;2023-03-24T03:28:33;99905.75;;;11.35;100.00
12247;BME280;6186;52.022;4.692;2023-03-24T03:31:04;99892.00;;;11.29;100.00
12247;BME280;6186;52.022;4.692;2023-03-24T03:33:37;99894.63;;;11.29;100.00
12247;BME280;6186;52.022;4.692;2023-03-24T03:39:10;99894.69;;;11.27;100.00
12247;BME280;6186;52.022;4.692;2023-03-24T03:41:39;99903.50;;;11.26;100.00
12247;BME280;6186;52.022;4.692;2023-03-24T03:44:04;99910.50;;;11.27;100.00
12247;BME280;6186;52.022;4.692;2023-03-24T03:46:30;99905.34;;;11.24;100.00
12247;BME280;6186;52.022;4.692;2023-03-24T03:48:55;99907.97;;;11.24;100.00
12247;BME280;6186;52.022;4.692;2023-03-24T03:51:21;99932.41;;;11.28;100.00
12247;BME280;6186;52.022;4.692;2023-03-24T03:53:50;99908.13;;;11.21;100.00
12247;BME280;6186;52.022;4.692;2023-03-24T03:56:19;99920.09;;;11.28;100.00
12247;BME280;6186;52.022;4.692;2023-03-24T03:58:46;99933.28;;;11.28;100.00
12247;BME280;6186;52.022;4.692;2023-03-24T04:01:15;99916.69;;;11.26;100.00
12247;BME280;6186;52.022;4.692;2023-03-24T04:06:36;99913.41;;;11.21;100.00
12247;BME280;6186;52.022;4.692;2023-03-24T04:09:21;99920.44;;;11.21;100.00
12247;BME280;6186;52.022;4.692;2023-03-24T04:12:00;99922.19;;;11.20;100.00
12247;BME280;6186;52.022;4.692;2023-03-24T04:18:03;99933.13;;;11.11;100.00
12247;BME280;6186;52.022;4.692;2023-03-24T04:20:44;99949.00;;;11.10;100.00
12247;BME280;6186;52.022;4.692;2023-03-24T04:28:48;99950.25;;;11.01;100.00
12247;BME280;6186;52.022;4.692;2023-03-24T04:31:39;99950.34;;;10.98;100.00
12247;BME280;6186;52.022;4.692;2023-03-24T04:34:22;99956.66;;;10.94;100.00
12247;BME280;6186;52.022;4.692;2023-03-24T04:36:56;99955.94;;;10.91;100.00
12247;BME280;6186;52.022;4.692;2023-03-24T04:39:29;99955.22;;;10.87;100.00
12247;BME280;6186;52.022;4.692;2023-03-24T04:41:58;99967.56;;;10.85;100.00
12247;BME280;6186;52.022;4.692;2023-03-24T04:44:26;99978.34;;;10.79;100.00
12247;BME280;6186;52.022;4.692;2023-03-24T04:46:55;99970.44;;;10.79;100.00
12247;BME280;6186;52.022;4.692;2023-03-24T04:49:22;99964.38;;;10.77;100.00
12247;BME280;6186;52.022;4.692;2023-03-24T04:51:51;99976.75;;;10.75;100.00
12247;BME280;6186;52.022;4.692;2023-03-24T04:54:18;99976.16;;;10.69;100.00
12247;BME280;6186;52.022;4.692;2023-03-24T04:56:49;99984.72;;;10.74;100.00
12247;BME280;6186;52.022;4.692;2023-03-24T04:59:15;99996.19;;;10.71;100.00
12247;BME280;6186;52.022;4.692;2023-03-24T05:01:42;99985.75;;;10.70;100.00
12247;BME280;6186;52.022;4.692;2023-03-24T05:04:13;99996.28;;;10.70;100.00
12247;BME280;6186;52.022;4.692;2023-03-24T05:06:38;99998.91;;;10.70;100.00
12247;BME280;6186;52.022;4.692;2023-03-24T05:09:04;99998.91;;;10.70;100.00
12247;BME280;6186;52.022;4.692;2023-03-24T05:11:29;100021.69;;;10.71;100.00
12247;BME280;6186;52.022;4.692;2023-03-24T05:13:55;100016.28;;;10.74;100.00
12247;BME280;6186;52.022;4.692;2023-03-24T05:16:20;100000.44;;;10.75;100.00
12247;BME280;6186;52.022;4.692;2023-03-24T05:18:46;100009.19;;;10.76;100.00
12247;BME280;6186;52.022;4.692;2023-03-24T05:21:11;100011.03;;;10.74;100.00
12247;BME280;6186;52.022;4.692;2023-03-24T05:23:37;100033.63;;;10.79;100.00
12247;BME280;6186;52.022;4.692;2023-03-24T05:26:03;100037.06;;;10.81;100.00
12247;BME280;6186;52.022;4.692;2023-03-24T05:28:29;100030.88;;;10.82;100.00
12247;BME280;6186;52.022;4.692;2023-03-24T05:30:55;100036.94;;;10.84;100.00
12247;BME280;6186;52.022;4.692;2023-03-24T05:33:20;100034.19;;;10.87;100.00
12247;BME280;6186;52.022;4.692;2023-03-24T05:35:46;100028.91;;;10.87;100.00
12247;BME280;6186;52.022;4.692;2023-03-24T05:38:12;100029.72;;;10.89;100.00
12247;BME280;6186;52.022;4.692;2023-03-24T05:40:37;100049.84;;;10.90;100.00
12247;BME280;6186;52.022;4.692;2023-03-24T05:43:03;100034.06;;;10.90;100.00
12247;BME280;6186;52.022;4.692;2023-03-24T05:45:28;100024.63;;;10.85;100.00
12247;BME280;6186;52.022;4.692;2023-03-24T05:47:54;100058.53;;;10.92;100.00
12247;BME280;6186;52.022;4.692;2023-03-24T05:50:20;100052.47;;;10.90;100.00
12247;BME280;6186;52.022;4.692;2023-03-24T05:52:45;100060.28;;;10.93;100.00
12247;BME280;6186;52.022;4.692;2023-03-24T05:55:11;100061.09;;;10.95;100.00
12247;BME280;6186;52.022;4.692;2023-03-24T05:57:36;100056.84;;;10.91;100.00
12247;BME280;6186;52.022;4.692;2023-03-24T06:00:03;100062.78;;;10.96;100.00
12247;BME280;6186;52.022;4.692;2023-03-24T06:02:34;100068.91;;;10.97;100.00
12247;BME280;6186;52.022;4.692;2023-03-24T06:05:00;100074.13;;;10.98;100.00
12247;BME280;6186;52.022;4.692;2023-03-24T06:07:26;100079.38;;;10.98;100.00
12247;BME280;6186;52.022;4.692;2023-03-24T06:09:55;100072.34;;;10.99;100.00
12247;BME280;6186;52.022;4.692;2023-03-24T06:12:22;100063.59;;;10.98;100.00
12247;BME280;6186;52.022;4.692;2023-03-24T06:14:48;100075.22;;;10.93;100.00
12247;BME280;6186;52.022;4.692;2023-03-24T06:17:13;100088.22;;;10.97;100.00
12247;BME280;6186;52.022;4.692;2023-03-24T06:19:41;100079.44;;;10.97;100.00
12247;BME280;6186;52.022;4.692;2023-03-24T06:22:15;100099.56;;;10.98;100.00
12247;BME280;6186;52.022;4.692;2023-03-24T06:24:40;100092.53;;;10.98;100.00
12247;BME280;6186;52.022;4.692;2023-03-24T06:27:06;100096.03;;;10.99;100.00
12247;BME280;6186;52.022;4.692;2023-03-24T06:29:33;100094.22;;;11.01;100.00
12247;BME280;6186;52.022;4.692;2023-03-24T06:31:59;100094.22;;;11.01;100.00
12247;BME280;6186;52.022;4.692;2023-03-24T06:34:24;100099.56;;;10.98;100.00
12247;BME280;6186;52.022;4.692;2023-03-24T06:36:50;100105.53;;;11.03;100.00
12247;BME280;6186;52.022;4.692;2023-03-24T06:39:16;100109.00;;;11.03;100.00
12247;BME280;6186;52.022;4.692;2023-03-24T06:41:42;100100.34;;;11.01;100.00
12247;BME280;6186;52.022;4.692;2023-03-24T06:44:07;100112.50;;;11.04;100.00
12247;BME280;6186;52.022;4.692;2023-03-24T06:46:33;100104.53;;;11.05;100.00
12247;BME280;6186;52.022;4.692;2023-03-24T06:48:58;100105.34;;;11.07;100.00
12247;BME280;6186;52.022;4.692;2023-03-24T06:51:24;100094.38;;;10.96;100.00
12247;BME280;6186;52.022;4.692;2023-03-24T06:53:49;100110.50;;;11.10;100.00
12247;BME280;6186;52.022;4.692;2023-03-24T06:56:14;100115.66;;;11.13;100.00
12247;BME280;6186;52.022;4.692;2023-03-24T06:58:43;100125.22;;;11.16;100.00
12247;BME280;6186;52.022;4.692;2023-03-24T07:01:09;100132.03;;;11.21;100.00
12247;BME280;6186;52.022;4.692;2023-03-24T07:03:35;100133.69;;;11.24;100.00
12247;BME280;6186;52.022;4.692;2023-03-24T07:06:01;100139.63;;;11.29;100.00
12247;BME280;6186;52.022;4.692;2023-03-24T07:08:26;100138.59;;;11.33;100.00
12247;BME280;6186;52.022;4.692;2023-03-24T07:10:51;100145.38;;;11.38;100.00
12247;BME280;6186;52.022;4.692;2023-03-24T07:13:17;100134.72;;;11.42;100.00
12247;BME280;6186;52.022;4.692;2023-03-24T07:15:42;100142.63;;;11.42;100.00
12247;BME280;6186;52.022;4.692;2023-03-24T07:18:07;100154.91;;;11.43;100.00
12247;BME280;6186;52.022;4.692;2023-03-24T07:20:33;100149.38;;;11.49;100.00
12247;BME280;6186;52.022;4.692;2023-03-24T07:22:58;100165.13;;;11.50;100.00
12247;BME280;6186;52.022;4.692;2023-03-24T07:25:24;100140.91;;;11.41;100.00
12247;BME280;6186;52.022;4.692;2023-03-24T07:27:52;100168.38;;;11.57;100.00
12247;BME280;6186;52.022;4.692;2023-03-24T07:30:18;100166.47;;;11.60;100.00
12247;BME280;6186;52.022;4.692;2023-03-24T07:32:43;100162.00;;;11.62;100.00
12247;BME280;6186;52.022;4.692;2023-03-24T07:35:10;100166.34;;;11.63;100.00
12247;BME280;6186;52.022;4.692;2023-03-24T07:37:36;100172.47;;;11.65;100.00
12247;BME280;6186;52.022;4.692;2023-03-24T07:40:05;100170.75;;;11.63;100.00
12247;BME280;6186;52.022;4.692;2023-03-24T07:42:33;100157.59;;;11.63;100.00
12247;BME280;6186;52.022;4.692;2023-03-24T07:44:58;100176.63;;;11.71;100.00
12247;BME280;6186;52.022;4.692;2023-03-24T07:47:24;100184.09;;;11.81;100.00
12247;BME280;6186;52.022;4.692;2023-03-24T07:49:49;100180.31;;;11.88;100.00
12247;BME280;6186;52.022;4.692;2023-03-24T07:52:14;100181.75;;;11.95;100.00
12247;BME280;6186;52.022;4.692;2023-03-24T07:54:40;100178.97;;;11.98;100.00
12247;BME280;6186;52.022;4.692;2023-03-24T07:57:05;100198.16;;;12.02;100.00
12247;BME280;6186;52.022;4.692;2023-03-24T07:59:31;100193.50;;;12.08;100.00
12247;BME280;6186;52.022;4.692;2023-03-24T08:01:58;100196.69;;;12.16;100.00
12247;BME280;6186;52.022;4.692;2023-03-24T08:04:24;100196.38;;;12.24;100.00
12247;BME280;6186;52.022;4.692;2023-03-24T08:06:51;100192.63;;;12.29;100.00
12247;BME280;6186;52.022;4.692;2023-03-24T08:09:17;100196.69;;;12.37;100.00
12247;BME280;6186;52.022;4.692;2023-03-24T08:11:43;100206.06;;;12.44;100.00
12247;BME280;6186;52.022;4.692;2023-03-24T08:14:08;100192.53;;;12.51;100.00
12247;BME280;6186;52.022;4.692;2023-03-24T08:16:33;100216.03;;;12.57;100.00
12247;BME280;6186;52.022;4.692;2023-03-24T08:18:58;100193.88;;;12.61;100.00
12247;BME280;6186;52.022;4.692;2023-03-24T08:21:25;100203.91;;;12.73;100.00
12247;BME280;6186;52.022;4.692;2023-03-24T08:23:50;100218.63;;;12.79;100.00
12247;BME280;6186;52.022;4.692;2023-03-24T08:26:16;100219.41;;;12.81;100.00
12247;BME280;6186;52.022;4.692;2023-03-24T08:28:42;100219.34;;;12.82;100.00
12247;BME280;6186;52.022;4.692;2023-03-24T08:31:08;100220.06;;;12.86;100.00
12247;BME280;6186;52.022;4.692;2023-03-24T08:33:33;100215.63;;;12.86;100.00
12247;BME280;6186;52.022;4.692;2023-03-24T08:35:59;100217.47;;;12.84;100.00
12247;BME280;6186;52.022;4.692;2023-03-24T08:38:26;100222.84;;;12.83;100.00
12247;BME280;6186;52.022;4.692;2023-03-24T08:40:56;100223.09;;;12.77;100.00
12247;BME280;6186;52.022;4.692;2023-03-24T08:43:23;100237.28;;;12.74;100.00
12247;BME280;6186;52.022;4.692;2023-03-24T08:45:50;100236.50;;;12.72;100.00
12247;BME280;6186;52.022;4.692;2023-03-24T08:48:16;100233.75;;;12.75;100.00
12247;BME280;6186;52.022;4.692;2023-03-24T08:50:41;100244.88;;;12.82;100.00
12247;BME280;6186;52.022;4.692;2023-03-24T08:53:07;100234.91;;;12.88;100.00
12247;BME280;6186;52.022;4.692;2023-03-24T08:55:34;100244.00;;;13.01;100.00
12247;BME280;6186;52.022;4.692;2023-03-24T08:58:01;100253.63;;;13.02;100.00
12247;BME280;6186;52.022;4.692;2023-03-24T09:00:27;100251.56;;;13.10;100.00
12247;BME280;6186;52.022;4.692;2023-03-24T09:02:54;100254.09;;;13.32;100.00
12247;BME280;6186;52.022;4.692;2023-03-24T09:05:21;100247.94;;;13.50;100.00
12247;BME280;6186;52.022;4.692;2023-03-24T09:07:48;100258.69;;;13.66;100.00
12247;BME280;6186;52.022;4.692;2023-03-24T09:10:14;100263.59;;;13.73;100.00
12247;BME280;6186;52.022;4.692;2023-03-24T09:12:41;100262.78;;;13.90;100.00
12247;BME280;6186;52.022;4.692;2023-03-24T09:15:08;100258.53;;;14.04;100.00
12247;BME280;6186;52.022;4.692;2023-03-24T09:17:35;100277.72;;;14.09;100.00
12247;BME280;6186;52.022;4.692;2023-03-24T09:20:02;100273.88;;;13.98;100.00
12247;BME280;6186;52.022;4.692;2023-03-24T09:22:31;100269.44;;;13.80;100.00
12247;BME280;6186;52.022;4.692;2023-03-24T09:24:56;100275.69;;;13.60;100.00
12247;BME280;6186;52.022;4.692;2023-03-24T09:27:22;100280.91;;;13.43;100.00
12247;BME280;6186;52.022;4.692;2023-03-24T09:29:48;100278.53;;;13.37;100.00
12247;BME280;6186;52.022;4.692;2023-03-24T09:32:13;100270.97;;;13.48;100.00
12247;BME280;6186;52.022;4.692;2023-03-24T09:34:38;100243.38;;;13.35;100.00
12247;BME280;6186;52.022;4.692;2023-03-24T09:37:04;100270.00;;;13.31;100.00
12247;BME280;6186;52.022;4.692;2023-03-24T09:39:30;100286.50;;;13.17;100.00
12247;BME280;6186;52.022;4.692;2023-03-24T09:41:55;100294.34;;;13.18;100.00
12247;BME280;6186;52.022;4.692;2023-03-24T09:44:24;100291.56;;;13.21;100.00
12247;BME280;6186;52.022;4.692;2023-03-24T09:46:56;100280.88;;;13.25;100.00
12247;BME280;6186;52.022;4.692;2023-03-24T09:49:30;100298.09;;;13.52;100.00
12247;BME280;6186;52.022;4.692;2023-03-24T09:52:09;100296.13;;;13.57;100.00
12247;BME280;6186;52.022;4.692;2023-03-24T09:54:55;100298.09;;;13.52;100.00
12247;BME280;6186;52.022;4.692;2023-03-24T09:57:26;100297.59;;;13.44;100.00
12247;BME280;6186;52.022;4.692;2023-03-24T09:59:53;100295.53;;;13.32;100.00
12247;BME280;6186;52.022;4.692;2023-03-24T10:02:20;100285.38;;;13.23;100.00
12247;BME280;6186;52.022;4.692;2023-03-24T10:04:47;100303.19;;;13.17;100.00
12247;BME280;6186;52.022;4.692;2023-03-24T10:09:55;100268.13;;;12.94;100.00
12247;BME280;6186;52.022;4.692;2023-03-24T10:20:44;100298.28;;;13.29;100.00
12247;BME280;6186;52.022;4.692;2023-03-24T10:26:18;100290.50;;;13.64;100.00
12247;BME280;6186;52.022;4.692;2023-03-24T10:29:02;100281.53;;;13.85;100.00
12247;BME280;6186;52.022;4.692;2023-03-24T10:31:33;100284.31;;;14.01;100.00
12247;BME280;6186;52.022;4.692;2023-03-24T10:34:00;100300.09;;;14.02;100.00
12247;BME280;6186;52.022;4.692;2023-03-24T10:36:26;100291.09;;;14.06;100.00
12247;BME280;6186;52.022;4.692;2023-03-24T10:38:52;100298.38;;;14.73;100.00
12247;BME280;6186;52.022;4.692;2023-03-24T10:41:27;100295.13;;;15.67;100.00
12247;BME280;6186;52.022;4.692;2023-03-24T10:43:55;100287.78;;;16.19;100.00
12247;BME280;6186;52.022;4.692;2023-03-24T10:46:24;100290.53;;;16.02;100.00
12247;BME280;6186;52.022;4.692;2023-03-24T10:48:54;100298.66;;;15.68;100.00
12247;BME280;6186;52.022;4.692;2023-03-24T10:51:31;100299.03;;;15.28;100.00
12247;BME280;6186;52.022;4.692;2023-03-24T10:54:15;100286.69;;;14.94;100.00
12247;BME280;6186;52.022;4.692;2023-03-24T11:04:39;100301.34;;;13.95;100.00
12247;BME280;6186;52.022;4.692;2023-03-24T11:09:41;100301.34;;;13.77;100.00
12247;BME280;6186;52.022;4.692;2023-03-24T11:12:25;100297.63;;;13.81;100.00
12247;BME280;6186;52.022;4.692;2023-03-24T11:14:50;100302.31;;;13.93;100.00
12247;BME280;6186;52.022;4.692;2023-03-24T11:17:19;100297.13;;;14.46;100.00
12247;BME280;6186;52.022;4.692;2023-03-24T11:19:55;100300.50;;;15.33;100.00
12247;BME280;6186;52.022;4.692;2023-03-24T11:22:21;100301.69;;;15.45;100.00
12247;BME280;6186;52.022;4.692;2023-03-24T11:24:53;100307.94;;;15.27;100.00
12247;BME280;6186;52.022;4.692;2023-03-24T11:27:19;100314.66;;;14.99;100.00
12247;BME280;6186;52.022;4.692;2023-03-24T11:29:51;100304.31;;;14.78;100.00
12247;BME280;6186;52.022;4.692;2023-03-24T11:32:23;100299.03;;;14.61;100.00
12247;BME280;6186;52.022;4.692;2023-03-24T11:35:27;100310.84;;;14.54;100.00
12247;BME280;6186;52.022;4.692;2023-03-24T11:37:46;100314.94;;;14.42;100.00
12247;BME280;6186;52.022;4.692;2023-03-24T11:43:03;100309.22;;;14.68;100.00
12247;BME280;6186;52.022;4.692;2023-03-24T11:48:01;100314.78;;;15.31;100.00
12247;BME280;6186;52.022;4.692;2023-03-24T11:50:32;100302.34;;;15.81;100.00
12247;BME280;6186;52.022;4.692;2023-03-24T11:53:20;100313.22;;;16.08;100.00
12247;BME280;6186;52.022;4.692;2023-03-24T12:00:51;100306.19;;;15.75;100.00
12247;BME280;6186;52.022;4.692;2023-03-24T12:04:03;100301.88;;;15.73;100.00
12247;BME280;6186;52.022;4.692;2023-03-24T12:07:01;100314.88;;;15.62;100.00
12247;BME280;6186;52.022;4.692;2023-03-24T12:17:44;100300.84;;;15.60;100.00
12247;BME280;6186;52.022;4.692;2023-03-24T12:20:20;100298.28;;;15.58;100.00
12247;BME280;6186;52.022;4.692;2023-03-24T12:37:06;100289.88;;;15.18;100.00
12247;BME280;6186;52.022;4.692;2023-03-24T12:39:43;100289.59;;;15.22;100.00
12247;BME280;6186;52.022;4.692;2023-03-24T12:42:15;100290.28;;;15.26;100.00
12247;BME280;6186;52.022;4.692;2023-03-24T12:57:03;100276.16;;;16.06;100.00
12247;BME280;6186;52.022;4.692;2023-03-24T12:59:45;100290.63;;;16.16;100.00
12247;BME280;6186;52.022;4.692;2023-03-24T13:02:38;100267.41;;;16.04;100.00
12247;BME280;6186;52.022;4.692;2023-03-24T13:05:12;100271.78;;;15.74;100.00
12247;BME280;6186;52.022;4.692;2023-03-24T13:07:41;100262.13;;;15.40;100.00
12247;BME280;6186;52.022;4.692;2023-03-24T13:10:29;100287.84;;;15.05;100.00
12247;BME280;6186;52.022;4.692;2023-03-24T13:13:12;100272.06;;;14.87;100.00
12247;BME280;6186;52.022;4.692;2023-03-24T13:15:48;100278.91;;;14.91;100.00
12247;BME280;6186;52.022;4.692;2023-03-24T13:18:30;100274.66;;;15.21;100.00
12247;BME280;6186;52.022;4.692;2023-03-24T13:21:13;100263.34;;;15.50;100.00
12247;BME280;6186;52.022;4.692;2023-03-24T13:24:03;100270.59;;;15.95;100.00
12247;BME280;6186;52.022;4.692;2023-03-24T13:29:23;100264.75;;;16.20;100.00
12247;BME280;6186;52.022;4.692;2023-03-24T13:34:36;100267.66;;;16.15;100.00
12247;BME280;6186;52.022;4.692;2023-03-24T13:37:13;100265.34;;;16.09;100.00
12247;BME280;6186;52.022;4.692;2023-03-24T13:39:42;100263.41;;;15.97;100.00
12247;BME280;6186;52.022;4.692;2023-03-24T13:44:51;100262.44;;;15.67;100.00
12247;BME280;6186;52.022;4.692;2023-03-24T13:47:18;100266.28;;;15.61;100.00
12247;BME280;6186;52.022;4.692;2023-03-24T13:50:02;100256.84;;;15.56;100.00
12247;BME280;6186;52.022;4.692;2023-03-24T13:52:35;100254.66;;;15.64;100.00
12247;BME280;6186;52.022;4.692;2023-03-24T13:55:09;100252.41;;;15.56;100.00
12247;BME280;6186;52.022;4.692;2023-03-24T13:57:47;100246.19;;;15.57;100.00
12247;BME280;6186;52.022;4.692;2023-03-24T14:00:21;100245.47;;;15.54;100.00
12247;BME280;6186;52.022;4.692;2023-03-24T14:02:48;100252.84;;;15.49;100.00
12247;BME280;6186;52.022;4.692;2023-03-24T14:05:38;100250.03;;;15.52;100.00
12247;BME280;6186;52.022;4.692;2023-03-24T14:10:39;100236.44;;;15.41;100.00
12247;BME280;6186;52.022;4.692;2023-03-24T14:15:56;100251.28;;;15.45;100.00
12247;BME280;6186;52.022;4.692;2023-03-24T14:23:30;100229.22;;;15.44;100.00
12247;BME280;6186;52.022;4.692;2023-03-24T14:25:58;100238.47;;;15.53;100.00
12247;BME280;6186;52.022;4.692;2023-03-24T14:28:37;100222.31;;;15.57;100.00
12247;BME280;6186;52.022;4.692;2023-03-24T14:31:19;100232.75;;;15.60;100.00
12247;BME280;6186;52.022;4.692;2023-03-24T14:36:23;100226.56;;;15.60;100.00
12247;BME280;6186;52.022;4.692;2023-03-24T14:38:50;100228.63;;;15.55;100.00
12247;BME280;6186;52.022;4.692;2023-03-24T14:41:26;100232.19;;;15.54;100.00
12247;BME280;6186;52.022;4.692;2023-03-24T14:43:57;100217.44;;;15.50;100.00
12247;BME280;6186;52.022;4.692;2023-03-24T14:49:22;100221.47;;;15.40;100.00
12247;BME280;6186;52.022;4.692;2023-03-24T14:52:12;100227.59;;;15.42;100.00
12247;BME280;6186;52.022;4.692;2023-03-24T14:54:48;100221.97;;;15.48;100.00
12247;BME280;6186;52.022;4.692;2023-03-24T14:57:24;100232.72;;;15.45;100.00
12247;BME280;6186;52.022;4.692;2023-03-24T15:00:12;100232.03;;;15.41;100.00
12247;BME280;6186;52.022;4.692;2023-03-24T15:02:44;100225.16;;;15.37;100.00
12247;BME280;6186;52.022;4.692;2023-03-24T15:07:38;100223.31;;;15.22;100.00
12247;BME280;6186;52.022;4.692;2023-03-24T15:10:03;100229.91;;;15.15;100.00
12247;BME280;6186;52.022;4.692;2023-03-24T15:12:29;100216.88;;;15.10;100.00
12247;BME280;6186;52.022;4.692;2023-03-24T15:14:55;100215.19;;;15.09;100.00
12247;BME280;6186;52.022;4.692;2023-03-24T15:17:21;100196.94;;;15.03;100.00
12247;BME280;6186;52.022;4.692;2023-03-24T15:19:52;100210.22;;;15.03;100.00
12247;BME280;6186;52.022;4.692;2023-03-24T15:22:18;100221.59;;;15.05;100.00
12247;BME280;6186;52.022;4.692;2023-03-24T15:24:49;100206.28;;;15.10;100.00